sensor_id;sensor_type;location;lat;lon;timestamp;temperature;humidity
10121;DHT22;5100;45.176;5.714;2023-07-30T00:00:00;25.60;71.40
10121;DHT22;5100;45.176;5.714;2023-07-30T00:02:26;25.60;71.50
10121;DHT22;5100;45.176;5.714;2023-07-30T00:04:52;25.60;71.60
10121;DHT22;5100;45.176;5.714;2023-07-30T00:07:18;25.60;71.70
10121;DHT22;5100;45.176;5.714;2023-07-30T00:09:44;25.60;71.80
10121;DHT22;5100;45.176;5.714;2023-07-30T00:12:10;25.60;71.90
10121;DHT22;5100;45.176;5.714;2023-07-30T00:14:36;25.50;71.80
10121;DHT22;5100;45.176;5.714;2023-07-30T00:17:02;25.50;71.70
10121;DHT22;5100;45.176;5.714;2023-07-30T00:19:31;25.50;71.70
10121;DHT22;5100;45.176;5.714;2023-07-30T00:21:57;25.50;71.70
10121;DHT22;5100;45.176;5.714;2023-07-30T00:24:23;25.50;71.70
10121;DHT22;5100;45.176;5.714;2023-07-30T00:26:49;25.50;71.60
10121;DHT22;5100;45.176;5.714;2023-07-30T00:29:15;25.50;71.60
10121;DHT22;5100;45.176;5.714;2023-07-30T00:31:41;25.40;71.70
10121;DHT22;5100;45.176;5.714;2023-07-30T00:34:07;25.40;71.80
10121;DHT22;5100;45.176;5.714;2023-07-30T00:36:33;25.40;71.90
10121;DHT22;5100;45.176;5.714;2023-07-30T00:38:59;25.40;72.00
10121;DHT22;5100;45.176;5.714;2023-07-30T00:41:26;25.40;72.00
10121;DHT22;5100;45.176;5.714;2023-07-30T00:43:51;25.40;72.00
10121;DHT22;5100;45.176;5.714;2023-07-30T00:46:17;25.40;72.10
10121;DHT22;5100;45.176;5.714;2023-07-30T00:48:44;25.40;72.10
10121;DHT22;5100;45.176;5.714;2023-07-30T00:51:13;25.30;72.10
10121;DHT22;5100;45.176;5.714;2023-07-30T00:53:39;25.30;72.10
10121;DHT22;5100;45.176;5.714;2023-07-30T00:56:06;25.30;72.10
10121;DHT22;5100;45.176;5.714;2023-07-30T00:58:33;25.30;72.10
10121;DHT22;5100;45.176;5.714;2023-07-30T01:00:59;25.30;72.10
10121;DHT22;5100;45.176;5.714;2023-07-30T01:03:25;25.30;72.10
10121;DHT22;5100;45.176;5.714;2023-07-30T01:05:51;25.30;72.10
10121;DHT22;5100;45.176;5.714;2023-07-30T01:08:17;25.30;72.00
10121;DHT22;5100;45.176;5.714;2023-07-30T01:10:43;25.30;71.90
10121;DHT22;5100;45.176;5.714;2023-07-30T01:13:10;25.20;71.90
10121;DHT22;5100;45.176;5.714;2023-07-30T01:15:37;25.20;71.90
10121;DHT22;5100;45.176;5.714;2023-07-30T01:18:03;25.20;72.00
10121;DHT22;5100;45.176;5.714;2023-07-30T01:20:30;25.20;71.90
10121;DHT22;5100;45.176;5.714;2023-07-30T01:22:58;25.20;71.90
10121;DHT22;5100;45.176;5.714;2023-07-30T01:25:29;25.20;71.90
10121;DHT22;5100;45.176;5.714;2023-07-30T01:27:59;25.20;71.90
10121;DHT22;5100;45.176;5.714;2023-07-30T01:30:32;25.10;71.90
10121;DHT22;5100;45.176;5.714;2023-07-30T01:32:59;25.10;71.90
10121;DHT22;5100;45.176;5.714;2023-07-30T01:35:27;25.10;71.90
10121;DHT22;5100;45.176;5.714;2023-07-30T01:37:55;25.10;71.90
10121;DHT22;5100;45.176;5.714;2023-07-30T01:40:21;25.10;71.90
10121;DHT22;5100;45.176;5.714;2023-07-30T01:42:48;25.10;71.90
10121;DHT22;5100;45.176;5.714;2023-07-30T01:45:16;25.10;71.90
10121;DHT22;5100;45.176;5.714;2023-07-30T01:47:42;25.10;71.90
10121;DHT22;5100;45.176;5.714;2023-07-30T01:50:08;25.00;71.90
10121;DHT22;5100;45.176;5.714;2023-07-30T01:52:35;25.00;71.80
10121;DHT22;5100;45.176;5.714;2023-07-30T01:55:01;25.00;71.80
10121;DHT22;5100;45.176;5.714;2023-07-30T01:57:27;25.00;71.80
10121;DHT22;5100;45.176;5.714;2023-07-30T01:59:53;25.00;71.90
10121;DHT22;5100;45.176;5.714;2023-07-30T02:02:19;25.00;72.00
10121;DHT22;5100;45.176;5.714;2023-07-30T02:04:46;25.00;72.00
10121;DHT22;5100;45.176;5.714;2023-07-30T02:07:12;24.90;72.10
10121;DHT22;5100;45.176;5.714;2023-07-30T02:09:37;24.90;72.10
10121;DHT22;5100;45.176;5.714;2023-07-30T02:12:04;24.90;72.20
10121;DHT22;5100;45.176;5.714;2023-07-30T02:14:30;24.90;72.30
10121;DHT22;5100;45.176;5.714;2023-07-30T02:16:59;24.90;72.40
10121;DHT22;5100;45.176;5.714;2023-07-30T02:19:25;24.90;72.40
10121;DHT22;5100;45.176;5.714;2023-07-30T02:21:51;24.90;72.40
10121;DHT22;5100;45.176;5.714;2023-07-30T02:24:17;24.90;72.50
10121;DHT22;5100;45.176;5.714;2023-07-30T02:26:43;24.90;72.50
10121;DHT22;5100;45.176;5.714;2023-07-30T02:29:09;24.80;72.40
10121;DHT22;5100;45.176;5.714;2023-07-30T02:31:35;24.80;72.40
10121;DHT22;5100;45.176;5.714;2023-07-30T02:34:01;24.80;72.40
10121;DHT22;5100;45.176;5.714;2023-07-30T02:36:27;24.80;72.50
10121;DHT22;5100;45.176;5.714;2023-07-30T02:38:54;24.80;72.60
10121;DHT22;5100;45.176;5.714;2023-07-30T02:41:20;24.80;72.60
10121;DHT22;5100;45.176;5.714;2023-07-30T02:43:46;24.80;72.60
10121;DHT22;5100;45.176;5.714;2023-07-30T02:46:12;24.80;72.50
10121;DHT22;5100;45.176;5.714;2023-07-30T02:48:38;24.80;72.50
10121;DHT22;5100;45.176;5.714;2023-07-30T02:51:03;24.80;72.40
10121;DHT22;5100;45.176;5.714;2023-07-30T02:53:29;24.80;72.40
10121;DHT22;5100;45.176;5.714;2023-07-30T02:55:55;24.80;72.40
10121;DHT22;5100;45.176;5.714;2023-07-30T02:58:21;24.80;72.40
10121;DHT22;5100;45.176;5.714;2023-07-30T03:00:47;24.80;72.40
10121;DHT22;5100;45.176;5.714;2023-07-30T03:03:14;24.80;72.40
10121;DHT22;5100;45.176;5.714;2023-07-30T03:05:42;24.80;72.40
10121;DHT22;5100;45.176;5.714;2023-07-30T03:08:08;24.80;72.40
10121;DHT22;5100;45.176;5.714;2023-07-30T03:10:36;24.80;72.30
10121;DHT22;5100;45.176;5.714;2023-07-30T03:13:02;24.70;72.20
10121;DHT22;5100;45.176;5.714;2023-07-30T03:15:28;24.70;72.10
10121;DHT22;5100;45.176;5.714;2023-07-30T03:17:54;24.70;72.00
10121;DHT22;5100;45.176;5.714;2023-07-30T03:20:20;24.70;72.00
10121;DHT22;5100;45.176;5.714;2023-07-30T03:22:46;24.70;72.00
10121;DHT22;5100;45.176;5.714;2023-07-30T03:25:12;24.70;72.00
10121;DHT22;5100;45.176;5.714;2023-07-30T03:27:38;24.60;71.90
10121;DHT22;5100;45.176;5.714;2023-07-30T03:30:05;24.60;71.80
10121;DHT22;5100;45.176;5.714;2023-07-30T03:32:31;24.60;71.90
10121;DHT22;5100;45.176;5.714;2023-07-30T03:34:57;24.60;72.00
10121;DHT22;5100;45.176;5.714;2023-07-30T03:37:23;24.60;72.00
10121;DHT22;5100;45.176;5.714;2023-07-30T03:39:49;24.50;72.00
10121;DHT22;5100;45.176;5.714;2023-07-30T03:42:16;24.50;72.00
10121;DHT22;5100;45.176;5.714;2023-07-30T03:44:42;24.50;72.00
10121;DHT22;5100;45.176;5.714;2023-07-30T03:47:08;24.50;72.00
10121;DHT22;5100;45.176;5.714;2023-07-30T03:49:33;24.50;72.00
10121;DHT22;5100;45.176;5.714;2023-07-30T03:52:00;24.50;72.00
10121;DHT22;5100;45.176;5.714;2023-07-30T03:54:26;24.40;72.00
10121;DHT22;5100;45.176;5.714;2023-07-30T03:56:52;24.40;72.10
10121;DHT22;5100;45.176;5.714;2023-07-30T03:59:19;24.40;72.10
10121;DHT22;5100;45.176;5.714;2023-07-30T04:01:45;24.40;72.20
10121;DHT22;5100;45.176;5.714;2023-07-30T04:04:11;24.40;72.20
10121;DHT22;5100;45.176;5.714;2023-07-30T04:06:37;24.40;72.20
10121;DHT22;5100;45.176;5.714;2023-07-30T04:09:03;24.40;72.30
10121;DHT22;5100;45.176;5.714;2023-07-30T04:11:29;24.30;72.30
10121;DHT22;5100;45.176;5.714;2023-07-30T04:13:56;24.30;72.40
10121;DHT22;5100;45.176;5.714;2023-07-30T04:16:22;24.30;72.30
10121;DHT22;5100;45.176;5.714;2023-07-30T04:18:49;24.30;72.40
10121;DHT22;5100;45.176;5.714;2023-07-30T04:21:15;24.30;72.40
10121;DHT22;5100;45.176;5.714;2023-07-30T04:23:41;24.30;72.40
10121;DHT22;5100;45.176;5.714;2023-07-30T04:26:07;24.30;72.40
10121;DHT22;5100;45.176;5.714;2023-07-30T04:28:33;24.30;72.50
10121;DHT22;5100;45.176;5.714;2023-07-30T04:30:59;24.30;72.50
10121;DHT22;5100;45.176;5.714;2023-07-30T04:33:26;24.30;72.40
10121;DHT22;5100;45.176;5.714;2023-07-30T04:35:53;24.30;72.40
10121;DHT22;5100;45.176;5.714;2023-07-30T04:38:19;24.30;72.50
10121;DHT22;5100;45.176;5.714;2023-07-30T04:40:46;24.30;72.50
10121;DHT22;5100;45.176;5.714;2023-07-30T04:43:13;24.30;72.40
10121;DHT22;5100;45.176;5.714;2023-07-30T04:45:40;24.30;72.50
10121;DHT22;5100;45.176;5.714;2023-07-30T04:48:06;24.30;72.60
10121;DHT22;5100;45.176;5.714;2023-07-30T04:50:32;24.30;72.40
10121;DHT22;5100;45.176;5.714;2023-07-30T04:52:58;24.30;72.20
10121;DHT22;5100;45.176;5.714;2023-07-30T04:55:24;24.30;72.10
10121;DHT22;5100;45.176;5.714;2023-07-30T04:57:50;24.30;72.10
10121;DHT22;5100;45.176;5.714;2023-07-30T05:00:16;24.30;72.20
10121;DHT22;5100;45.176;5.714;2023-07-30T05:02:43;24.30;72.00
10121;DHT22;5100;45.176;5.714;2023-07-30T05:05:09;24.30;72.00
10121;DHT22;5100;45.176;5.714;2023-07-30T05:07:35;24.30;72.10
10121;DHT22;5100;45.176;5.714;2023-07-30T05:10:01;24.40;72.10
10121;DHT22;5100;45.176;5.714;2023-07-30T05:12:27;24.40;72.10
10121;DHT22;5100;45.176;5.714;2023-07-30T05:14:52;24.40;72.00
10121;DHT22;5100;45.176;5.714;2023-07-30T05:17:19;24.40;72.00
10121;DHT22;5100;45.176;5.714;2023-07-30T05:19:44;24.50;72.00
10121;DHT22;5100;45.176;5.714;2023-07-30T05:22:10;24.50;71.90
10121;DHT22;5100;45.176;5.714;2023-07-30T05:24:37;24.60;71.70
10121;DHT22;5100;45.176;5.714;2023-07-30T05:27:03;24.60;71.40
10121;DHT22;5100;45.176;5.714;2023-07-30T05:29:29;24.70;71.20
10121;DHT22;5100;45.176;5.714;2023-07-30T05:31:55;24.70;70.90
10121;DHT22;5100;45.176;5.714;2023-07-30T05:34:21;24.70;71.00
10121;DHT22;5100;45.176;5.714;2023-07-30T05:36:46;24.80;71.20
10121;DHT22;5100;45.176;5.714;2023-07-30T05:39:13;24.80;71.00
10121;DHT22;5100;45.176;5.714;2023-07-30T05:41:38;24.80;71.00
10121;DHT22;5100;45.176;5.714;2023-07-30T05:44:04;24.80;71.00
10121;DHT22;5100;45.176;5.714;2023-07-30T05:46:30;24.90;70.50
10121;DHT22;5100;45.176;5.714;2023-07-30T05:48:57;24.90;70.20
10121;DHT22;5100;45.176;5.714;2023-07-30T05:51:22;24.90;70.00
10121;DHT22;5100;45.176;5.714;2023-07-30T05:53:49;24.90;70.10
10121;DHT22;5100;45.176;5.714;2023-07-30T05:56:14;24.90;70.30
10121;DHT22;5100;45.176;5.714;2023-07-30T05:58:44;25.00;70.30
10121;DHT22;5100;45.176;5.714;2023-07-30T06:01:10;25.10;70.10
10121;DHT22;5100;45.176;5.714;2023-07-30T06:03:37;25.20;70.30
10121;DHT22;5100;45.176;5.714;2023-07-30T06:06:03;25.30;70.10
10121;DHT22;5100;45.176;5.714;2023-07-30T06:08:29;25.40;69.90
10121;DHT22;5100;45.176;5.714;2023-07-30T06:11:01;25.50;69.80
10121;DHT22;5100;45.176;5.714;2023-07-30T06:13:29;25.60;69.50
10121;DHT22;5100;45.176;5.714;2023-07-30T06:15:55;25.70;69.10
10121;DHT22;5100;45.176;5.714;2023-07-30T06:18:21;25.80;69.00
10121;DHT22;5100;45.176;5.714;2023-07-30T06:20:47;25.90;69.00
10121;DHT22;5100;45.176;5.714;2023-07-30T06:23:13;26.00;68.60
10121;DHT22;5100;45.176;5.714;2023-07-30T06:25:39;26.10;68.00
10121;DHT22;5100;45.176;5.714;2023-07-30T06:28:05;26.20;67.90
10121;DHT22;5100;45.176;5.714;2023-07-30T06:30:34;26.30;67.40
10121;DHT22;5100;45.176;5.714;2023-07-30T06:33:02;26.40;67.20
10121;DHT22;5100;45.176;5.714;2023-07-30T06:35:28;26.50;66.90
10121;DHT22;5100;45.176;5.714;2023-07-30T06:37:54;26.50;66.80
10121;DHT22;5100;45.176;5.714;2023-07-30T06:40:20;26.60;66.70
10121;DHT22;5100;45.176;5.714;2023-07-30T06:42:46;26.70;66.70
10121;DHT22;5100;45.176;5.714;2023-07-30T06:45:12;26.80;66.30
10121;DHT22;5100;45.176;5.714;2023-07-30T06:47:38;26.80;66.00
10121;DHT22;5100;45.176;5.714;2023-07-30T06:50:05;26.80;66.10
10121;DHT22;5100;45.176;5.714;2023-07-30T06:52:34;26.90;66.00
10121;DHT22;5100;45.176;5.714;2023-07-30T06:55:02;26.90;65.80
10121;DHT22;5100;45.176;5.714;2023-07-30T06:57:31;27.00;65.60
10121;DHT22;5100;45.176;5.714;2023-07-30T06:59:57;27.00;65.50
10121;DHT22;5100;45.176;5.714;2023-07-30T07:02:24;27.10;65.50
10121;DHT22;5100;45.176;5.714;2023-07-30T07:04:50;27.20;65.50
10121;DHT22;5100;45.176;5.714;2023-07-30T07:07:16;27.20;65.20
10121;DHT22;5100;45.176;5.714;2023-07-30T07:09:42;27.30;65.00
10121;DHT22;5100;45.176;5.714;2023-07-30T07:12:08;27.30;65.20
10121;DHT22;5100;45.176;5.714;2023-07-30T07:14:34;27.40;65.00
10121;DHT22;5100;45.176;5.714;2023-07-30T07:17:00;27.40;64.70
10121;DHT22;5100;45.176;5.714;2023-07-30T07:19:26;27.40;64.40
10121;DHT22;5100;45.176;5.714;2023-07-30T07:21:52;27.50;64.30
10121;DHT22;5100;45.176;5.714;2023-07-30T07:24:18;27.50;64.40
10121;DHT22;5100;45.176;5.714;2023-07-30T07:26:44;27.50;64.40
10121;DHT22;5100;45.176;5.714;2023-07-30T07:29:10;27.50;64.50
10121;DHT22;5100;45.176;5.714;2023-07-30T07:31:36;27.50;64.60
10121;DHT22;5100;45.176;5.714;2023-07-30T07:34:02;27.50;64.60
10121;DHT22;5100;45.176;5.714;2023-07-30T07:36:28;27.50;64.50
10121;DHT22;5100;45.176;5.714;2023-07-30T07:38:54;27.40;64.50
10121;DHT22;5100;45.176;5.714;2023-07-30T07:41:20;27.40;64.60
10121;DHT22;5100;45.176;5.714;2023-07-30T07:43:47;27.40;64.60
10121;DHT22;5100;45.176;5.714;2023-07-30T07:46:13;27.40;64.70
10121;DHT22;5100;45.176;5.714;2023-07-30T07:48:43;27.40;64.90
10121;DHT22;5100;45.176;5.714;2023-07-30T07:51:10;27.40;65.00
10121;DHT22;5100;45.176;5.714;2023-07-30T07:53:37;27.40;65.10
10121;DHT22;5100;45.176;5.714;2023-07-30T07:56:03;27.30;65.20
10121;DHT22;5100;45.176;5.714;2023-07-30T07:58:30;27.30;65.30
10121;DHT22;5100;45.176;5.714;2023-07-30T08:00:57;27.30;65.40
10121;DHT22;5100;45.176;5.714;2023-07-30T08:03:24;27.30;65.50
10121;DHT22;5100;45.176;5.714;2023-07-30T08:05:52;27.30;65.70
10121;DHT22;5100;45.176;5.714;2023-07-30T08:08:18;27.30;65.80
10121;DHT22;5100;45.176;5.714;2023-07-30T08:10:44;27.20;66.00
10121;DHT22;5100;45.176;5.714;2023-07-30T08:13:13;27.20;66.10
10121;DHT22;5100;45.176;5.714;2023-07-30T08:15:39;27.20;66.20
10121;DHT22;5100;45.176;5.714;2023-07-30T08:18:05;27.20;66.30
10121;DHT22;5100;45.176;5.714;2023-07-30T08:20:31;27.20;66.30
10121;DHT22;5100;45.176;5.714;2023-07-30T08:22:57;27.10;66.50
10121;DHT22;5100;45.176;5.714;2023-07-30T08:25:23;27.10;66.20
10121;DHT22;5100;45.176;5.714;2023-07-30T08:27:49;27.10;65.70
10121;DHT22;5100;45.176;5.714;2023-07-30T08:30:15;27.10;65.60
10121;DHT22;5100;45.176;5.714;2023-07-30T08:32:41;27.10;65.10
10121;DHT22;5100;45.176;5.714;2023-07-30T08:35:09;27.10;64.50
10121;DHT22;5100;45.176;5.714;2023-07-30T08:37:36;27.10;63.90
10121;DHT22;5100;45.176;5.714;2023-07-30T08:40:02;27.10;63.40
10121;DHT22;5100;45.176;5.714;2023-07-30T08:42:29;27.10;63.30
10121;DHT22;5100;45.176;5.714;2023-07-30T08:44:55;27.10;63.00
10121;DHT22;5100;45.176;5.714;2023-07-30T08:47:22;27.10;62.70
10121;DHT22;5100;45.176;5.714;2023-07-30T08:49:47;27.10;62.70
10121;DHT22;5100;45.176;5.714;2023-07-30T08:52:17;27.10;62.60
10121;DHT22;5100;45.176;5.714;2023-07-30T08:54:47;27.10;62.60
10121;DHT22;5100;45.176;5.714;2023-07-30T08:57:16;27.10;62.60
10121;DHT22;5100;45.176;5.714;2023-07-30T08:59:50;27.10;62.80
10121;DHT22;5100;45.176;5.714;2023-07-30T09:02:39;27.20;63.00
10121;DHT22;5100;45.176;5.714;2023-07-30T09:05:07;27.20;63.20
10121;DHT22;5100;45.176;5.714;2023-07-30T09:07:33;27.20;63.20
10121;DHT22;5100;45.176;5.714;2023-07-30T09:09:59;27.20;63.10
10121;DHT22;5100;45.176;5.714;2023-07-30T09:12:28;27.20;63.20
10121;DHT22;5100;45.176;5.714;2023-07-30T09:14:54;27.20;63.40
10121;DHT22;5100;45.176;5.714;2023-07-30T09:17:20;27.20;63.50
10121;DHT22;5100;45.176;5.714;2023-07-30T09:19:46;27.20;63.40
10121;DHT22;5100;45.176;5.714;2023-07-30T09:22:13;27.30;63.20
10121;DHT22;5100;45.176;5.714;2023-07-30T09:24:44;27.30;62.90
10121;DHT22;5100;45.176;5.714;2023-07-30T09:27:10;27.30;63.10
10121;DHT22;5100;45.176;5.714;2023-07-30T09:29:37;27.30;63.50
10121;DHT22;5100;45.176;5.714;2023-07-30T09:32:03;27.30;64.10
10121;DHT22;5100;45.176;5.714;2023-07-30T09:34:29;27.40;64.60
10121;DHT22;5100;45.176;5.714;2023-07-30T09:36:56;27.40;64.80
10121;DHT22;5100;45.176;5.714;2023-07-30T09:39:26;27.40;64.60
10121;DHT22;5100;45.176;5.714;2023-07-30T09:41:59;27.40;64.30
10121;DHT22;5100;45.176;5.714;2023-07-30T09:44:25;27.40;63.60
10121;DHT22;5100;45.176;5.714;2023-07-30T09:46:52;27.40;63.60
10121;DHT22;5100;45.176;5.714;2023-07-30T09:49:18;27.50;63.10
10121;DHT22;5100;45.176;5.714;2023-07-30T09:51:45;27.50;62.70
10121;DHT22;5100;45.176;5.714;2023-07-30T09:54:12;27.50;62.50
10121;DHT22;5100;45.176;5.714;2023-07-30T09:56:40;27.50;62.30
10121;DHT22;5100;45.176;5.714;2023-07-30T09:59:07;27.50;62.30
10121;DHT22;5100;45.176;5.714;2023-07-30T10:01:46;27.60;62.40
10121;DHT22;5100;45.176;5.714;2023-07-30T10:04:18;27.60;62.60
10121;DHT22;5100;45.176;5.714;2023-07-30T10:06:58;27.60;62.60
10121;DHT22;5100;45.176;5.714;2023-07-30T10:09:30;27.60;62.70
10121;DHT22;5100;45.176;5.714;2023-07-30T10:12:00;27.60;62.40
10121;DHT22;5100;45.176;5.714;2023-07-30T10:14:27;27.60;62.20
10121;DHT22;5100;45.176;5.714;2023-07-30T10:16:58;27.60;62.20
10121;DHT22;5100;45.176;5.714;2023-07-30T10:19:25;27.60;62.10
10121;DHT22;5100;45.176;5.714;2023-07-30T10:24:58;27.70;62.00
10121;DHT22;5100;45.176;5.714;2023-07-30T10:27:29;27.70;61.90
10121;DHT22;5100;45.176;5.714;2023-07-30T10:30:13;27.70;61.90
10121;DHT22;5100;45.176;5.714;2023-07-30T10:32:57;27.70;61.40
10121;DHT22;5100;45.176;5.714;2023-07-30T10:35:52;27.70;60.90
10121;DHT22;5100;45.176;5.714;2023-07-30T10:38:21;27.70;60.80
10121;DHT22;5100;45.176;5.714;2023-07-30T10:43:30;27.70;61.20
10121;DHT22;5100;45.176;5.714;2023-07-30T10:45:56;27.70;60.80
10121;DHT22;5100;45.176;5.714;2023-07-30T10:48:47;27.70;60.70
10121;DHT22;5100;45.176;5.714;2023-07-30T10:51:16;27.70;60.50
10121;DHT22;5100;45.176;5.714;2023-07-30T10:53:51;27.70;60.40
10121;DHT22;5100;45.176;5.714;2023-07-30T10:56:21;27.70;60.40
10121;DHT22;5100;45.176;5.714;2023-07-30T10:58:52;27.80;60.00
10121;DHT22;5100;45.176;5.714;2023-07-30T11:01:18;27.70;59.70
10121;DHT22;5100;45.176;5.714;2023-07-30T11:03:49;27.80;60.00
10121;DHT22;5100;45.176;5.714;2023-07-30T11:06:25;27.80;59.60
10121;DHT22;5100;45.176;5.714;2023-07-30T11:08:51;27.80;59.60
10121;DHT22;5100;45.176;5.714;2023-07-30T11:11:17;27.80;59.30
10121;DHT22;5100;45.176;5.714;2023-07-30T11:13:45;27.80;59.50
10121;DHT22;5100;45.176;5.714;2023-07-30T11:16:13;27.80;59.50
10121;DHT22;5100;45.176;5.714;2023-07-30T11:18:40;27.90;59.20
10121;DHT22;5100;45.176;5.714;2023-07-30T11:21:11;27.90;59.30
10121;DHT22;5100;45.176;5.714;2023-07-30T11:23:40;27.90;59.30
10121;DHT22;5100;45.176;5.714;2023-07-30T11:26:08;27.90;58.50
10121;DHT22;5100;45.176;5.714;2023-07-30T11:28:36;27.90;58.20
10121;DHT22;5100;45.176;5.714;2023-07-30T11:31:10;27.90;58.20
10121;DHT22;5100;45.176;5.714;2023-07-30T11:33:55;27.90;58.40
10121;DHT22;5100;45.176;5.714;2023-07-30T11:36:22;28.00;58.10
10121;DHT22;5100;45.176;5.714;2023-07-30T11:38:51;27.90;57.90
10121;DHT22;5100;45.176;5.714;2023-07-30T11:41:19;28.00;57.40
10121;DHT22;5100;45.176;5.714;2023-07-30T11:43:46;28.00;57.40
10121;DHT22;5100;45.176;5.714;2023-07-30T11:46:16;28.00;57.30
10121;DHT22;5100;45.176;5.714;2023-07-30T11:48:45;28.00;57.30
10121;DHT22;5100;45.176;5.714;2023-07-30T11:51:20;28.00;57.10
10121;DHT22;5100;45.176;5.714;2023-07-30T11:53:49;28.00;57.00
10121;DHT22;5100;45.176;5.714;2023-07-30T11:56:37;28.00;57.00
10121;DHT22;5100;45.176;5.714;2023-07-30T11:59:07;28.00;57.10
10121;DHT22;5100;45.176;5.714;2023-07-30T12:01:35;28.00;56.40
10121;DHT22;5100;45.176;5.714;2023-07-30T12:04:04;28.00;56.50
10121;DHT22;5100;45.176;5.714;2023-07-30T12:06:47;28.10;56.40
10121;DHT22;5100;45.176;5.714;2023-07-30T12:09:15;28.10;55.60
10121;DHT22;5100;45.176;5.714;2023-07-30T12:11:55;28.10;55.40
10121;DHT22;5100;45.176;5.714;2023-07-30T12:14:26;28.10;55.00
10121;DHT22;5100;45.176;5.714;2023-07-30T12:16:58;28.10;54.50
10121;DHT22;5100;45.176;5.714;2023-07-30T12:19:24;28.10;54.10
10121;DHT22;5100;45.176;5.714;2023-07-30T12:21:50;28.10;54.50
10121;DHT22;5100;45.176;5.714;2023-07-30T12:24:16;28.10;53.70
10121;DHT22;5100;45.176;5.714;2023-07-30T12:26:42;28.10;54.20
10121;DHT22;5100;45.176;5.714;2023-07-30T12:29:08;28.10;54.40
10121;DHT22;5100;45.176;5.714;2023-07-30T12:31:34;28.10;54.80
10121;DHT22;5100;45.176;5.714;2023-07-30T12:34:00;28.20;55.00
10121;DHT22;5100;45.176;5.714;2023-07-30T12:36:26;28.20;54.50
10121;DHT22;5100;45.176;5.714;2023-07-30T12:38:52;28.20;54.30
10121;DHT22;5100;45.176;5.714;2023-07-30T12:41:20;28.20;53.60
10121;DHT22;5100;45.176;5.714;2023-07-30T12:43:55;28.20;53.30
10121;DHT22;5100;45.176;5.714;2023-07-30T12:46:25;28.20;53.40
10121;DHT22;5100;45.176;5.714;2023-07-30T12:48:56;28.20;52.30
10121;DHT22;5100;45.176;5.714;2023-07-30T12:51:22;28.20;51.80
10121;DHT22;5100;45.176;5.714;2023-07-30T12:53:48;28.30;52.00
10121;DHT22;5100;45.176;5.714;2023-07-30T12:56:15;28.30;52.30
10121;DHT22;5100;45.176;5.714;2023-07-30T12:58:41;28.30;52.30
10121;DHT22;5100;45.176;5.714;2023-07-30T13:01:07;28.30;52.10
10121;DHT22;5100;45.176;5.714;2023-07-30T13:03:33;28.30;51.90
10121;DHT22;5100;45.176;5.714;2023-07-30T13:05:59;28.30;52.00
10121;DHT22;5100;45.176;5.714;2023-07-30T13:08:25;28.30;52.30
10121;DHT22;5100;45.176;5.714;2023-07-30T13:10:51;28.30;52.20
10121;DHT22;5100;45.176;5.714;2023-07-30T13:13:17;28.30;51.80
10121;DHT22;5100;45.176;5.714;2023-07-30T13:15:43;28.40;51.70
10121;DHT22;5100;45.176;5.714;2023-07-30T13:18:09;28.40;51.60
10121;DHT22;5100;45.176;5.714;2023-07-30T13:20:35;28.40;51.60
10121;DHT22;5100;45.176;5.714;2023-07-30T13:23:02;28.40;51.80
10121;DHT22;5100;45.176;5.714;2023-07-30T13:25:28;28.40;51.60
10121;DHT22;5100;45.176;5.714;2023-07-30T13:27:54;28.40;51.00
10121;DHT22;5100;45.176;5.714;2023-07-30T13:30:20;28.40;51.00
10121;DHT22;5100;45.176;5.714;2023-07-30T13:32:46;28.50;50.90
10121;DHT22;5100;45.176;5.714;2023-07-30T13:35:12;28.50;50.70
10121;DHT22;5100;45.176;5.714;2023-07-30T13:37:38;28.50;50.80
10121;DHT22;5100;45.176;5.714;2023-07-30T13:40:04;28.50;50.80
10121;DHT22;5100;45.176;5.714;2023-07-30T13:42:30;28.50;50.70
10121;DHT22;5100;45.176;5.714;2023-07-30T13:44:57;28.50;50.70
10121;DHT22;5100;45.176;5.714;2023-07-30T13:47:22;28.50;50.70
10121;DHT22;5100;45.176;5.714;2023-07-30T13:49:49;28.50;50.40
10121;DHT22;5100;45.176;5.714;2023-07-30T13:52:15;28.50;50.30
10121;DHT22;5100;45.176;5.714;2023-07-30T13:54:41;28.50;50.10
10121;DHT22;5100;45.176;5.714;2023-07-30T13:57:08;28.50;49.90
10121;DHT22;5100;45.176;5.714;2023-07-30T13:59:35;28.50;49.90
10121;DHT22;5100;45.176;5.714;2023-07-30T14:02:00;28.60;49.60
10121;DHT22;5100;45.176;5.714;2023-07-30T14:04:26;28.60;49.40
10121;DHT22;5100;45.176;5.714;2023-07-30T14:06:52;28.60;49.30
10121;DHT22;5100;45.176;5.714;2023-07-30T14:09:18;28.60;49.50
10121;DHT22;5100;45.176;5.714;2023-07-30T14:11:45;28.60;49.40
10121;DHT22;5100;45.176;5.714;2023-07-30T14:14:12;28.60;49.50
10121;DHT22;5100;45.176;5.714;2023-07-30T14:16:38;28.60;49.30
10121;DHT22;5100;45.176;5.714;2023-07-30T14:19:04;28.70;49.30
10121;DHT22;5100;45.176;5.714;2023-07-30T14:21:30;28.70;49.20
10121;DHT22;5100;45.176;5.714;2023-07-30T14:23:56;28.70;49.10
10121;DHT22;5100;45.176;5.714;2023-07-30T14:26:22;28.70;49.20
10121;DHT22;5100;45.176;5.714;2023-07-30T14:28:48;28.70;49.50
10121;DHT22;5100;45.176;5.714;2023-07-30T14:31:14;28.70;49.80
10121;DHT22;5100;45.176;5.714;2023-07-30T14:33:40;28.70;49.70
10121;DHT22;5100;45.176;5.714;2023-07-30T14:36:06;28.80;49.50
10121;DHT22;5100;45.176;5.714;2023-07-30T14:38:32;28.80;49.30
10121;DHT22;5100;45.176;5.714;2023-07-30T14:41:00;28.80;48.70
10121;DHT22;5100;45.176;5.714;2023-07-30T14:43:27;28.80;49.00
10121;DHT22;5100;45.176;5.714;2023-07-30T14:45:53;28.80;48.50
10121;DHT22;5100;45.176;5.714;2023-07-30T14:48:20;28.80;48.60
10121;DHT22;5100;45.176;5.714;2023-07-30T14:50:45;28.80;48.30
10121;DHT22;5100;45.176;5.714;2023-07-30T14:53:12;28.80;48.10
10121;DHT22;5100;45.176;5.714;2023-07-30T14:55:38;28.80;47.80
10121;DHT22;5100;45.176;5.714;2023-07-30T14:58:04;28.80;47.80
10121;DHT22;5100;45.176;5.714;2023-07-30T15:00:30;28.80;47.80
10121;DHT22;5100;45.176;5.714;2023-07-30T15:02:56;28.80;47.80
10121;DHT22;5100;45.176;5.714;2023-07-30T15:05:22;28.80;48.00
10121;DHT22;5100;45.176;5.714;2023-07-30T15:07:48;28.80;48.10
10121;DHT22;5100;45.176;5.714;2023-07-30T15:10:14;28.80;48.30
10121;DHT22;5100;45.176;5.714;2023-07-30T15:12:43;28.80;47.70
10121;DHT22;5100;45.176;5.714;2023-07-30T15:15:10;28.80;47.40
10121;DHT22;5100;45.176;5.714;2023-07-30T15:17:36;28.80;47.30
10121;DHT22;5100;45.176;5.714;2023-07-30T15:20:02;28.80;47.10
10121;DHT22;5100;45.176;5.714;2023-07-30T15:22:28;28.80;47.20
10121;DHT22;5100;45.176;5.714;2023-07-30T15:24:54;28.80;47.30
10121;DHT22;5100;45.176;5.714;2023-07-30T15:27:20;28.80;47.10
10121;DHT22;5100;45.176;5.714;2023-07-30T15:29:46;28.80;46.90
10121;DHT22;5100;45.176;5.714;2023-07-30T15:32:12;28.80;46.70
10121;DHT22;5100;45.176;5.714;2023-07-30T15:34:38;28.80;46.60
10121;DHT22;5100;45.176;5.714;2023-07-30T15:37:04;28.80;46.80
10121;DHT22;5100;45.176;5.714;2023-07-30T15:39:30;28.80;47.00
10121;DHT22;5100;45.176;5.714;2023-07-30T15:42:02;28.80;47.20
10121;DHT22;5100;45.176;5.714;2023-07-30T15:44:28;28.90;47.10
10121;DHT22;5100;45.176;5.714;2023-07-30T15:46:54;28.90;47.10
10121;DHT22;5100;45.176;5.714;2023-07-30T15:49:20;28.90;47.00